createdAt,value
2018-02-04T00:00:00.192Z,5.57
2018-02-04T00:00:23.794Z,5.57
2018-02-04T00:00:47.253Z,5.56
2018-02-04T00:01:10.991Z,5.56
2018-02-04T00:01:34.762Z,5.54
2018-02-04T00:01:58.799Z,5.53
2018-02-04T00:02:22.844Z,5.52
2018-02-04T00:02:46.618Z,5.51
2018-02-04T00:03:09.992Z,5.51
2018-02-04T00:03:33.920Z,5.50
2018-02-04T00:03:57.696Z,5.48
2018-02-04T00:04:21.147Z,5.47
2018-02-04T00:04:44.912Z,5.48
2018-02-04T00:05:08.710Z,5.47
2018-02-04T00:05:32.514Z,5.47
2018-02-04T00:05:56.576Z,5.47
2018-02-04T00:06:20.442Z,5.47
2018-02-04T00:06:44.496Z,5.48
2018-02-04T00:07:08.265Z,5.48
2018-02-04T00:07:31.713Z,5.47
2018-02-04T00:07:55.522Z,5.47
2018-02-04T00:08:19.274Z,5.46
2018-02-04T00:08:43.296Z,5.47
2018-02-04T00:09:07.367Z,5.47
2018-02-04T00:09:31.102Z,5.46
2018-02-04T00:09:54.586Z,5.47
2018-02-04T00:10:18.333Z,5.46
2018-02-04T00:10:42.109Z,5.46
2018-02-04T00:11:06.143Z,5.47
2018-02-04T00:11:29.896Z,5.47
2018-02-04T00:11:53.409Z,5.46
2018-02-04T00:12:17.158Z,5.46
2018-02-04T00:12:40.949Z,5.45
2018-02-04T00:13:05.056Z,5.44
2018-02-04T00:13:28.828Z,5.43
2018-02-04T00:13:52.861Z,5.42
2018-02-04T00:14:16.958Z,5.40
2018-02-04T00:14:40.715Z,5.39
2018-02-04T00:15:04.747Z,5.38
2018-02-04T00:15:28.963Z,5.38
2018-02-04T00:15:52.728Z,5.37
2018-02-04T00:16:16.171Z,5.36
2018-02-04T00:16:39.904Z,5.34
2018-02-04T00:17:03.646Z,5.33
2018-02-04T00:17:27.478Z,5.32
2018-02-04T00:17:50.817Z,5.31
2018-02-04T00:18:14.587Z,5.30
2018-02-04T00:18:38.028Z,5.29
2018-02-04T00:19:01.829Z,5.29
2018-02-04T00:19:25.645Z,5.28
2018-02-04T00:19:49.391Z,5.26
2018-02-04T00:20:13.145Z,5.27
2018-02-04T00:20:36.606Z,5.26
2018-02-04T00:21:00.374Z,5.26
2018-02-04T00:21:24.127Z,5.26
2018-02-04T00:21:48.186Z,5.25
2018-02-04T00:22:11.528Z,5.25
2018-02-04T00:22:39.404Z,5.25
2018-02-04T00:23:03.169Z,5.24
2018-02-04T00:23:26.990Z,5.25
2018-02-04T00:23:51.010Z,5.23
2018-02-04T00:24:15.027Z,5.23
2018-02-04T00:24:38.800Z,5.22
2018-02-04T00:25:02.662Z,5.21
2018-02-04T00:25:26.404Z,5.20
2018-02-04T00:25:50.167Z,5.20
2018-02-04T00:26:13.927Z,5.20
2018-02-04T00:26:37.704Z,5.20
2018-02-04T00:27:01.725Z,5.21
2018-02-04T00:27:25.868Z,5.20
2018-02-04T00:27:49.631Z,5.21
2018-02-04T00:28:13.720Z,5.21
2018-02-04T00:28:37.528Z,5.20
2018-02-04T00:29:01.629Z,5.20
2018-02-04T00:29:25.379Z,5.20
2018-02-04T00:29:48.836Z,5.19
2018-02-04T00:30:12.587Z,5.20
2018-02-04T00:30:35.983Z,5.19
2018-02-04T00:30:59.737Z,5.19
2018-02-04T00:31:23.460Z,5.19
2018-02-04T00:31:47.243Z,5.19
2018-02-04T00:32:11.115Z,5.17
2018-02-04T00:32:34.850Z,5.17
2018-02-04T00:32:58.625Z,5.17
2018-02-04T00:33:22.464Z,5.16
2018-02-04T00:33:46.226Z,5.16
2018-02-04T00:34:10.002Z,5.16
2018-02-04T00:34:33.451Z,5.16
2018-02-04T00:34:57.193Z,5.15
2018-02-04T00:35:20.944Z,5.14
2018-02-04T00:35:44.467Z,5.13
2018-02-04T00:36:08.255Z,5.12
2018-02-04T00:36:32.181Z,5.11
2018-02-04T00:36:55.934Z,5.10
2018-02-04T00:37:20.031Z,5.08
2018-02-04T00:37:43.766Z,5.07
2018-02-04T00:38:07.039Z,5.06
2018-02-04T00:38:30.780Z,5.05
2018-02-04T00:38:54.910Z,5.03
2018-02-04T00:39:18.664Z,5.01
2018-02-04T00:39:42.735Z,4.99
2018-02-04T00:40:06.740Z,4.98
2018-02-04T00:40:30.532Z,4.96
2018-02-04T00:40:54.036Z,4.93
2018-02-04T00:41:17.823Z,4.91
2018-02-04T00:41:41.573Z,4.88
2018-02-04T00:42:05.631Z,4.85
2018-02-04T00:42:29.399Z,4.83
2018-02-04T00:42:53.314Z,4.80
2018-02-04T00:43:16.875Z,4.78
2018-02-04T00:43:40.606Z,4.76
2018-02-04T00:44:04.411Z,4.74
2018-02-04T00:44:28.164Z,4.73
2018-02-04T00:44:51.653Z,4.72
2018-02-04T00:45:15.447Z,4.72
2018-02-04T00:45:38.535Z,4.71
2018-02-04T00:46:02.310Z,4.72
2018-02-04T00:46:26.124Z,4.72
2018-02-04T00:46:50.174Z,4.72
2018-02-04T00:47:13.992Z,4.72
2018-02-04T00:47:38.003Z,4.72
2018-02-04T00:48:02.040Z,4.73
2018-02-04T00:48:25.496Z,4.74
2018-02-04T00:48:49.260Z,4.74
2018-02-04T00:49:13.071Z,4.73
2018-02-04T00:49:36.807Z,4.74
2018-02-04T00:50:00.831Z,4.73
2018-02-04T00:50:24.866Z,4.73
2018-02-04T00:50:48.600Z,4.73
2018-02-04T00:51:12.323Z,4.74
2018-02-04T00:51:36.125Z,4.74
2018-02-04T00:51:59.871Z,4.74
2018-02-04T00:52:23.620Z,4.74
2018-02-04T00:52:47.660Z,4.74
2018-02-04T00:53:11.495Z,4.75
2018-02-04T00:53:35.567Z,4.76
2018-02-04T00:53:59.032Z,4.76
2018-02-04T00:54:22.793Z,4.76
2018-02-04T00:54:46.570Z,4.77
2018-02-04T00:55:10.355Z,4.76
2018-02-04T00:55:34.399Z,4.77
2018-02-04T00:55:58.217Z,4.76
2018-02-04T00:56:21.699Z,4.76
2018-02-04T00:56:45.443Z,4.76
2018-02-04T00:57:09.199Z,4.75
2018-02-04T00:57:33.205Z,4.76
2018-02-04T00:57:57.228Z,4.74
2018-02-04T00:58:20.793Z,4.74
2018-02-04T00:58:44.519Z,4.74
2018-02-04T00:59:08.077Z,4.74
2018-02-04T00:59:31.536Z,4.73
2018-02-04T00:59:55.264Z,4.73
2018-02-04T01:00:19.036Z,4.72
2018-02-04T01:00:42.816Z,4.71
2018-02-04T01:01:06.832Z,4.69
2018-02-04T01:01:30.955Z,4.69
2018-02-04T01:01:54.707Z,4.68
2018-02-04T01:02:18.744Z,4.67
2018-02-04T01:02:42.777Z,4.65
2018-02-04T01:03:06.507Z,4.65
2018-02-04T01:03:30.241Z,4.65
2018-02-04T01:03:54.056Z,4.65
2018-02-04T01:04:17.793Z,4.65
2018-02-04T01:04:41.601Z,4.64
2018-02-04T01:05:05.188Z,4.63
2018-02-04T01:05:28.955Z,4.62
2018-02-04T01:05:52.687Z,4.61
2018-02-04T01:06:16.424Z,4.60
2018-02-04T01:06:40.483Z,4.60
2018-02-04T01:07:04.235Z,4.59
2018-02-04T01:07:27.747Z,4.58
2018-02-04T01:07:51.489Z,4.58
2018-02-04T01:08:15.228Z,4.59
2018-02-04T01:08:39.233Z,4.59
2018-02-04T01:09:03.075Z,4.59
2018-02-04T01:09:26.561Z,4.60
2018-02-04T01:09:50.346Z,4.59
2018-02-04T01:10:14.137Z,4.59
2018-02-04T01:10:37.404Z,4.58
2018-02-04T01:11:00.966Z,4.58
2018-02-04T01:11:25.042Z,4.58
2018-02-04T01:11:48.871Z,4.58
2018-02-04T01:12:12.323Z,4.58
2018-02-04T01:12:36.126Z,4.58
2018-02-04T01:12:59.172Z,4.59
2018-02-04T01:13:22.912Z,4.57
2018-02-04T01:13:46.688Z,4.57
2018-02-04T01:14:09.504Z,4.57
2018-02-04T01:14:33.232Z,4.56
2018-02-04T01:14:57.013Z,4.56
2018-02-04T01:15:20.772Z,4.56
2018-02-04T01:15:44.634Z,4.54
2018-02-04T01:16:08.291Z,4.53
2018-02-04T01:16:32.044Z,4.52
2018-02-04T01:16:55.767Z,4.51
2018-02-04T01:17:19.507Z,4.50
2018-02-04T01:17:43.559Z,4.48
2018-02-04T01:18:07.377Z,4.49
2018-02-04T01:18:31.380Z,4.48
2018-02-04T01:18:55.506Z,4.49
2018-02-04T01:19:19.313Z,4.50
2018-02-04T01:19:43.331Z,4.51
2018-02-04T01:20:06.154Z,4.52
2018-02-04T01:20:29.605Z,4.54
2018-02-04T01:20:53.341Z,4.56
2018-02-04T01:21:17.171Z,4.57
2018-02-04T01:21:41.193Z,4.58
2018-02-04T01:22:04.948Z,4.59
2018-02-04T01:22:28.971Z,4.59
2018-02-04T01:22:53.018Z,4.59
2018-02-04T01:23:16.682Z,4.60
2018-02-04T01:23:40.486Z,4.60
2018-02-04T01:24:04.224Z,4.61
2018-02-04T01:24:28.045Z,4.62
2018-02-04T01:24:51.802Z,4.61
2018-02-04T01:25:15.847Z,4.62
2018-02-04T01:25:39.855Z,4.63
2018-02-04T01:26:03.683Z,4.63
2018-02-04T01:26:27.704Z,4.64
2018-02-04T01:26:51.727Z,4.64
2018-02-04T01:27:15.472Z,4.64
2018-02-04T01:27:39.259Z,4.63
2018-02-04T01:28:02.799Z,4.64
2018-02-04T01:28:26.537Z,4.64
2018-02-04T01:28:50.619Z,4.64
2018-02-04T01:29:14.455Z,4.62
2018-02-04T01:29:38.524Z,4.62
2018-02-04T01:30:02.339Z,4.61
2018-02-04T01:30:26.440Z,4.60
2018-02-04T01:30:50.237Z,4.58
2018-02-04T01:31:14.322Z,4.58
2018-02-04T01:31:38.099Z,4.57
2018-02-04T01:32:01.537Z,4.56
2018-02-04T01:32:25.323Z,4.56
2018-02-04T01:32:49.071Z,4.55
2018-02-04T01:33:13.112Z,4.55
2018-02-04T01:33:37.135Z,4.54
2018-02-04T01:34:00.878Z,4.54
2018-02-04T01:34:24.319Z,4.54
2018-02-04T01:34:48.051Z,4.54
2018-02-04T01:35:11.832Z,4.54
2018-02-04T01:35:35.902Z,4.54
2018-02-04T02:19:48.096Z,4.21
2018-02-04T02:20:11.908Z,4.21
2018-02-04T02:20:35.671Z,4.19
2018-02-04T02:20:59.473Z,4.19
2018-02-04T02:21:23.492Z,4.18
2018-02-04T02:21:47.523Z,4.18
2018-02-04T02:22:11.085Z,4.17
2018-02-04T02:22:34.191Z,4.16
2018-02-04T02:22:57.931Z,4.16
2018-02-04T02:23:21.716Z,4.16
2018-02-04T02:23:45.449Z,4.15
2018-02-04T02:24:09.185Z,4.15
2018-02-04T02:24:32.747Z,4.15
2018-02-04T02:24:56.520Z,4.15
2018-02-04T02:25:20.295Z,4.15
2018-02-04T02:25:44.113Z,4.16
2018-02-04T02:26:08.137Z,4.17
2018-02-04T02:26:31.880Z,4.16
2018-02-04T02:26:55.331Z,4.16
2018-02-04T02:27:19.141Z,4.17
2018-02-04T02:27:42.897Z,4.18
2018-02-04T02:28:06.955Z,4.18
2018-02-04T02:28:30.711Z,4.19
2018-02-04T02:28:54.170Z,4.20
2018-02-04T02:29:17.899Z,4.21
2018-02-04T02:29:41.635Z,4.22
2018-02-04T02:30:05.712Z,4.24
2018-02-04T02:30:29.469Z,4.24
2018-02-04T02:30:53.190Z,4.25
2018-02-04T02:31:16.985Z,4.27
2018-02-04T02:31:40.765Z,4.28
2018-02-04T02:32:04.561Z,4.30
2018-02-04T02:32:28.315Z,4.31
2018-02-04T02:32:51.810Z,4.32
2018-02-04T02:33:15.539Z,4.34
2018-02-04T02:33:39.289Z,4.35
2018-02-04T02:34:03.307Z,4.36
2018-02-04T02:34:26.756Z,4.36
2018-02-04T02:34:50.493Z,4.37
2018-02-04T02:35:14.284Z,4.36
2018-02-04T02:35:38.070Z,4.37
2018-02-04T02:36:01.421Z,4.37
2018-02-04T02:36:25.187Z,4.38
2018-02-04T02:36:48.955Z,4.38
2018-02-04T02:37:13.002Z,4.37
2018-02-04T02:37:36.743Z,4.36
2018-02-04T02:38:00.462Z,4.37
2018-02-04T02:38:24.210Z,4.35
2018-02-04T02:38:47.980Z,4.35
2018-02-04T02:39:11.782Z,4.35
2018-02-04T02:39:35.797Z,4.34
2018-02-04T02:39:59.539Z,4.33
2018-02-04T02:40:22.995Z,4.32
2018-02-04T02:40:46.804Z,4.31
2018-02-04T02:41:10.589Z,4.29
2018-02-04T02:41:34.618Z,4.26
2018-02-04T02:41:57.704Z,4.24
2018-02-04T02:42:21.449Z,4.22
2018-02-04T02:42:45.503Z,4.20
2018-02-04T02:43:09.346Z,4.19
2018-02-04T02:43:33.376Z,4.19
2018-02-04T02:43:56.827Z,4.18
2018-02-04T02:44:20.557Z,4.18
2018-02-04T02:44:44.279Z,4.19
2018-02-04T02:45:08.086Z,4.19
2018-02-04T02:45:32.141Z,4.19
2018-02-04T02:45:56.169Z,4.20
2018-02-04T02:46:19.611Z,4.21
2018-02-04T02:46:43.371Z,4.22
2018-02-04T02:47:06.479Z,4.23
2018-02-04T02:47:30.259Z,4.24
2018-02-04T02:47:54.067Z,4.24
2018-02-04T02:48:17.799Z,4.26
2018-02-04T02:48:41.257Z,4.26
2018-02-04T02:49:04.997Z,4.28
2018-02-04T02:49:28.742Z,4.29
2018-02-04T02:49:52.798Z,4.30
2018-02-04T02:50:16.643Z,4.31
2018-02-04T02:50:40.737Z,4.31
2018-02-04T02:51:04.511Z,4.31
2018-02-04T02:51:27.989Z,4.31
2018-02-04T02:51:51.756Z,4.32
2018-02-04T02:52:15.313Z,4.33
2018-02-04T02:52:38.396Z,4.33
2018-02-04T02:53:02.278Z,4.33
2018-02-04T02:53:26.012Z,4.34
2018-02-04T02:53:49.753Z,4.33
2018-02-04T02:54:13.569Z,4.32
2018-02-04T02:54:37.339Z,4.32
2018-02-04T02:55:00.820Z,4.31
2018-02-04T02:55:24.584Z,4.31
2018-02-04T02:55:48.351Z,4.31
2018-02-04T02:56:11.974Z,4.31
2018-02-04T02:56:36.667Z,4.32
2018-02-04T02:57:00.469Z,4.33
2018-02-04T02:57:24.221Z,4.34
2018-02-04T02:57:47.993Z,4.34
2018-02-04T02:58:12.028Z,4.34
2018-02-04T02:58:35.794Z,4.34
2018-02-04T02:58:59.244Z,4.36
2018-02-04T02:59:22.977Z,4.36
2018-02-04T02:59:46.719Z,4.36
2018-02-04T03:00:10.751Z,4.36
2018-02-04T03:00:34.783Z,4.37
2018-02-04T03:00:58.608Z,4.38
2018-02-04T03:01:22.067Z,4.37
2018-02-04T03:01:45.913Z,4.38
2018-02-04T03:02:08.971Z,4.40
2018-02-04T03:02:32.707Z,4.40
2018-02-04T03:02:56.468Z,4.41
2018-02-04T03:03:20.504Z,4.41
2018-02-04T03:03:44.533Z,4.41
2018-02-04T03:04:08.324Z,4.40
2018-02-04T03:04:32.356Z,4.40
2018-02-04T03:04:56.439Z,4.40
2018-02-04T03:05:20.199Z,4.40
2018-02-04T03:05:43.685Z,4.40
2018-02-04T03:06:07.537Z,4.41
2018-02-04T03:06:31.279Z,4.41
2018-02-04T03:06:55.053Z,4.40
2018-02-04T03:07:19.123Z,4.41
2018-02-04T03:07:43.163Z,4.41
2018-02-04T03:08:06.903Z,4.41
2018-02-04T03:08:30.416Z,4.41
2018-02-04T03:08:54.219Z,4.41
2018-02-04T03:09:17.771Z,4.42
2018-02-04T03:09:41.252Z,4.41
2018-02-04T03:10:04.323Z,4.41
2018-02-04T03:10:28.111Z,4.41
2018-02-04T03:10:51.889Z,4.41
2018-02-04T03:11:15.665Z,4.40
2018-02-04T03:11:39.679Z,4.39
2018-02-04T03:12:03.795Z,4.38
2018-02-04T03:12:27.546Z,4.37
2018-02-04T03:12:51.627Z,4.35
2018-02-04T03:13:15.424Z,4.34
2018-02-04T03:13:38.880Z,4.33
2018-02-04T03:14:02.624Z,4.32
2018-02-04T03:14:26.375Z,4.29
2018-02-04T03:14:50.396Z,4.27
2018-02-04T03:15:14.441Z,4.26
2018-02-04T03:15:38.222Z,4.24
2018-02-04T03:16:02.242Z,4.23
2018-02-04T03:16:26.357Z,4.22
2018-02-04T03:16:50.103Z,4.21
2018-02-04T03:17:13.552Z,4.19
2018-02-04T03:17:37.342Z,4.18
2018-02-04T03:18:01.134Z,4.18
2018-02-04T03:18:24.950Z,4.17
2018-02-04T03:18:48.409Z,4.18
2018-02-04T03:19:12.180Z,4.17
2018-02-04T03:19:35.927Z,4.16
2018-02-04T03:20:00.164Z,4.16
2018-02-04T03:20:23.901Z,4.16
2018-02-04T03:20:47.640Z,4.17
2018-02-04T03:21:11.139Z,4.17
2018-02-04T03:21:34.924Z,4.17
2018-02-04T03:21:58.672Z,4.18
2018-02-04T03:22:22.723Z,4.18
2018-02-04T03:22:46.465Z,4.19
2018-02-04T03:23:10.009Z,4.19
2018-02-04T03:23:33.766Z,4.19
2018-02-04T03:23:57.573Z,4.18
2018-02-04T03:24:21.315Z,4.17
2018-02-04T03:24:44.763Z,4.17
2018-02-04T03:25:08.321Z,4.15
2018-02-04T03:25:32.399Z,4.14
2018-02-04T03:25:56.136Z,4.12
2018-02-04T03:26:19.865Z,4.11
2018-02-04T03:26:43.627Z,4.10
2018-02-04T03:27:07.411Z,4.09
2018-02-04T03:27:31.228Z,4.08
2018-02-04T03:27:55.016Z,4.08
2018-02-04T03:28:19.372Z,4.07
2018-02-04T03:28:43.164Z,4.07
2018-02-04T03:29:06.983Z,4.07
2018-02-04T03:29:31.007Z,4.06
2018-02-04T03:29:54.647Z,4.05
2018-02-04T03:30:18.403Z,4.04
2018-02-04T03:30:42.148Z,4.03
2018-02-04T03:31:05.890Z,4.01
2018-02-04T03:31:29.637Z,4.01
2018-02-04T03:31:53.118Z,4.01
2018-02-04T03:32:17.026Z,4.00
2018-02-04T03:32:40.782Z,4.01
2018-02-04T03:33:04.355Z,4.01
2018-02-04T03:33:28.216Z,4.02
2018-02-04T03:33:51.747Z,4.02
2018-02-04T03:34:15.476Z,4.02
2018-02-04T03:34:39.235Z,4.03
2018-02-04T03:35:02.720Z,4.04
2018-02-04T03:35:26.464Z,4.05
2018-02-04T03:35:50.236Z,4.05
2018-02-04T03:36:14.253Z,4.07
2018-02-04T03:36:38.048Z,4.07
2018-02-04T03:37:01.590Z,4.08
2018-02-04T03:37:25.358Z,4.09
2018-02-04T03:37:49.258Z,4.09
2018-02-04T03:38:12.991Z,4.10
2018-02-04T03:38:37.084Z,4.11
2018-02-04T03:39:00.891Z,4.11
2018-02-04T03:39:24.955Z,4.11
2018-02-04T03:39:48.718Z,4.12
2018-02-04T03:40:12.169Z,4.13
2018-02-04T03:40:35.901Z,4.13
2018-02-04T03:40:59.649Z,4.13
2018-02-04T03:41:23.665Z,4.14
2018-02-04T03:41:47.731Z,4.15
2018-02-04T03:42:11.488Z,4.15
2018-02-04T03:42:34.947Z,4.17
2018-02-04T03:42:58.682Z,4.16
2018-02-04T03:43:22.427Z,4.17
2018-02-04T03:43:46.440Z,4.18
2018-02-04T03:44:10.477Z,4.18
2018-02-04T03:44:34.587Z,4.19
2018-02-04T03:44:58.320Z,4.19
2018-02-04T03:45:22.363Z,4.20
2018-02-04T03:45:46.110Z,4.20
2018-02-04T03:46:09.625Z,4.21
2018-02-04T03:46:33.347Z,4.21
2018-02-04T03:46:57.095Z,4.21
2018-02-04T03:47:21.155Z,4.21
2018-02-04T03:47:44.534Z,4.21
2018-02-04T03:48:08.332Z,4.21
2018-02-04T03:48:32.111Z,4.20
2018-02-04T03:48:55.887Z,4.19
2018-02-04T03:49:20.004Z,4.18
2018-02-04T03:49:43.760Z,4.17
2018-02-04T03:50:07.803Z,4.16
2018-02-04T03:50:31.822Z,4.15
2018-02-04T03:50:55.645Z,4.14
2018-02-04T03:51:19.696Z,4.14
2018-02-04T03:51:43.146Z,4.12
2018-02-04T03:52:06.887Z,4.11
2018-02-04T03:52:30.709Z,4.10
2018-02-04T03:52:54.491Z,4.10
2018-02-04T03:53:18.563Z,4.09
2018-02-04T03:53:42.324Z,4.09
2018-02-04T03:54:05.815Z,4.09
2018-02-04T03:54:29.564Z,4.08
2018-02-04T03:54:53.305Z,4.07
2018-02-04T03:55:17.331Z,4.05
2018-02-04T03:55:41.091Z,4.04
2018-02-04T03:56:04.583Z,4.03
2018-02-04T03:56:28.311Z,4.00
2018-02-04T03:56:52.063Z,3.98
2018-02-04T03:57:16.123Z,3.98
2018-02-04T03:57:40.122Z,3.96
2018-02-04T03:58:03.872Z,3.94
2018-02-04T03:58:27.432Z,3.94
2018-02-04T03:58:50.922Z,3.94
2018-02-04T03:59:14.948Z,3.94
2018-02-04T03:59:38.403Z,3.93
2018-02-04T04:00:02.220Z,3.93
2018-02-04T04:00:26.012Z,3.94
2018-02-04T04:00:49.059Z,3.94
2018-02-04T04:01:12.791Z,3.94
2018-02-04T04:01:36.573Z,3.94
2018-02-04T04:02:00.018Z,3.94
2018-02-04T04:02:23.890Z,3.94
2018-02-04T04:02:47.672Z,3.94
2018-02-04T04:03:11.319Z,3.94
2018-02-04T04:03:34.907Z,3.95
2018-02-04T04:03:58.663Z,3.95
2018-02-04T04:04:22.460Z,3.94
2018-02-04T04:04:45.985Z,3.94
2018-02-04T04:05:09.757Z,3.94
2018-02-04T04:05:33.486Z,3.93
2018-02-04T04:05:57.232Z,3.93
2018-02-04T04:06:21.306Z,3.92
2018-02-04T04:06:45.098Z,3.90
2018-02-04T04:07:08.644Z,3.88
2018-02-04T04:07:32.383Z,3.87
2018-02-04T04:07:56.127Z,3.86
2018-02-04T04:08:19.867Z,3.84
2018-02-04T04:08:42.628Z,3.84
2018-02-04T04:09:06.361Z,3.82
2018-02-04T04:09:29.814Z,3.82
2018-02-04T04:09:53.279Z,3.82
2018-02-04T04:10:16.383Z,3.82
2018-02-04T04:10:40.201Z,3.81
2018-02-04T04:11:03.956Z,3.82
2018-02-04T04:11:27.713Z,3.82
2018-02-04T04:11:51.758Z,3.83
2018-02-04T04:12:15.556Z,3.84
2018-02-04T04:12:39.711Z,3.84
2018-02-04T04:13:03.488Z,3.84
2018-02-04T04:13:27.576Z,3.85
2018-02-04T04:13:51.319Z,3.86
2018-02-04T04:14:14.830Z,3.87
2018-02-04T04:14:38.663Z,3.87
2018-02-04T04:15:01.782Z,3.87
2018-02-04T04:15:25.383Z,3.87
2018-02-04T04:15:49.161Z,3.87
2018-02-04T04:16:13.174Z,3.86
2018-02-04T04:16:37.252Z,3.85
2018-02-04T04:17:01.016Z,3.83
2018-02-04T04:17:25.089Z,3.82
2018-02-04T04:17:48.545Z,3.81
2018-02-04T04:18:12.358Z,3.80
2018-02-04T04:18:36.113Z,3.79
2018-02-04T04:18:59.855Z,3.79
2018-02-04T04:19:23.979Z,3.78
2018-02-04T04:19:47.727Z,3.77
2018-02-04T04:20:11.982Z,3.76
2018-02-04T04:20:35.762Z,3.76
2018-02-04T04:20:59.820Z,3.76
2018-02-04T04:21:23.563Z,3.75
2018-02-04T04:21:47.644Z,3.74
2018-02-04T04:22:11.734Z,3.74
2018-02-04T04:22:35.566Z,3.74
2018-02-04T04:22:59.663Z,3.74
2018-02-04T04:23:23.488Z,3.73
2018-02-04T04:23:47.562Z,3.72
2018-02-04T04:24:11.313Z,3.71
2018-02-04T04:24:35.339Z,3.70
2018-02-04T04:24:59.363Z,3.70
2018-02-04T04:25:23.127Z,3.70
2018-02-04T04:25:46.225Z,3.69
2018-02-04T04:26:10.399Z,3.68
2018-02-04T04:26:34.131Z,3.68
2018-02-04T04:26:58.164Z,3.68
2018-02-04T04:27:21.940Z,3.68
2018-02-04T04:27:45.426Z,3.68
2018-02-04T04:28:09.167Z,3.68
2018-02-04T04:28:32.943Z,3.68
2018-02-04T04:28:56.953Z,3.68
2018-02-04T04:29:20.691Z,3.66
2018-02-04T04:29:44.172Z,3.66
2018-02-04T04:30:07.935Z,3.66
2018-02-04T04:30:31.749Z,3.66
2018-02-04T04:30:55.789Z,3.66
2018-02-04T04:31:18.843Z,3.66
2018-02-04T04:31:42.638Z,3.67
2018-02-04T04:32:06.090Z,3.66
2018-02-04T04:32:29.833Z,3.66
2018-02-04T04:32:53.606Z,3.66
2018-02-04T04:33:17.357Z,3.65
2018-02-04T04:33:40.871Z,3.63
2018-02-04T04:34:04.614Z,3.63
2018-02-04T04:34:28.383Z,3.63
2018-02-04T04:34:51.423Z,3.62
2018-02-04T04:35:15.161Z,3.63
2018-02-04T04:35:39.197Z,3.62
2018-02-04T04:36:03.227Z,3.62
2018-02-04T04:36:26.969Z,3.61
2018-02-04T04:36:50.409Z,3.61
2018-02-04T04:37:14.187Z,3.60
2018-02-04T04:37:37.571Z,3.60
2018-02-04T04:38:01.333Z,3.59
2018-02-04T04:38:25.075Z,3.59
2018-02-04T04:38:48.830Z,3.58
2018-02-04T04:39:12.182Z,3.58
2018-02-04T04:39:35.982Z,3.58
2018-02-04T04:39:59.850Z,3.57
2018-02-04T04:40:23.599Z,3.58
2018-02-04T04:40:47.048Z,3.58
2018-02-04T04:41:10.805Z,3.58
2018-02-04T04:41:34.532Z,3.58
2018-02-04T04:41:58.558Z,3.57
2018-02-04T04:42:22.383Z,3.56
2018-02-04T04:42:46.440Z,3.55
2018-02-04T04:43:10.467Z,3.55
2018-02-04T04:43:33.505Z,3.55
2018-02-04T04:43:57.295Z,3.54
2018-02-04T04:44:21.304Z,3.54
2018-02-04T04:44:45.050Z,3.53
2018-02-04T04:45:08.535Z,3.53
2018-02-04T04:45:32.283Z,3.52
2018-02-04T04:45:56.052Z,3.51
2018-02-04T04:46:20.057Z,3.51
2018-02-04T04:46:44.126Z,3.50
2018-02-04T04:47:07.883Z,3.49
2018-02-04T04:47:31.907Z,3.48
2018-02-04T04:47:55.924Z,3.47
2018-02-04T04:48:19.662Z,3.48
2018-02-04T04:48:43.422Z,3.46
2018-02-04T04:49:07.166Z,3.46
2018-02-04T04:49:30.904Z,3.45
2018-02-04T04:49:54.642Z,3.45
2018-02-04T04:50:18.665Z,3.43
2018-02-04T04:50:42.399Z,3.43
2018-02-04T04:51:06.155Z,3.43
2018-02-04T04:51:29.898Z,3.43
2018-02-04T04:51:53.457Z,3.42
2018-02-04T04:52:17.224Z,3.41
2018-02-04T04:52:40.949Z,3.40
2018-02-04T04:53:04.351Z,3.39
2018-02-04T04:53:28.366Z,3.38
2018-02-04T04:53:52.119Z,3.37
2018-02-04T04:54:15.677Z,3.37
2018-02-04T04:54:39.455Z,3.37
2018-02-04T04:55:03.173Z,3.36
2018-02-04T04:55:26.896Z,3.35
2018-02-04T04:55:50.614Z,3.34
2018-02-04T04:56:14.336Z,3.33
2018-02-04T04:56:37.876Z,3.31
2018-02-04T04:57:01.767Z,3.31
2018-02-04T04:57:25.238Z,3.32
2018-02-04T04:57:48.995Z,3.32
2018-02-04T04:58:12.749Z,3.32
2018-02-04T04:58:36.781Z,3.33
2018-02-04T04:59:00.514Z,3.33
2018-02-04T04:59:24.304Z,3.33
2018-02-04T04:59:47.884Z,3.33
2018-02-04T05:00:11.431Z,3.33
2018-02-04T05:00:34.884Z,3.33
2018-02-04T05:00:58.639Z,3.33
2018-02-04T05:01:22.364Z,3.34
2018-02-04T05:01:46.390Z,3.34
2018-02-04T05:02:09.827Z,3.34
2018-02-04T05:02:33.269Z,3.33
2018-02-04T05:02:57.268Z,3.33
2018-02-04T05:03:20.550Z,3.32
2018-02-04T05:03:44.351Z,3.31
2018-02-04T05:04:08.084Z,3.30
2018-02-04T05:04:32.023Z,3.29
2018-02-04T05:04:56.105Z,3.29
2018-02-04T05:05:19.876Z,3.28
2018-02-04T05:05:43.900Z,3.27
2018-02-04T05:06:07.990Z,3.27
2018-02-04T05:06:31.787Z,3.26
2018-02-04T05:06:55.787Z,3.25
2018-02-04T05:07:19.807Z,3.24
2018-02-04T05:07:43.535Z,3.24
2018-02-04T05:08:07.063Z,3.23
2018-02-04T05:08:30.792Z,3.23
2018-02-04T05:08:54.524Z,3.23
2018-02-04T05:09:18.661Z,3.24
2018-02-04T05:09:42.419Z,3.24
2018-02-04T05:10:06.428Z,3.24
2018-02-04T05:10:30.470Z,3.26
2018-02-04T05:10:54.211Z,3.26
2018-02-04T05:11:17.651Z,3.25
2018-02-04T05:11:41.594Z,3.25
2018-02-04T05:12:05.368Z,3.25
2018-02-04T05:12:29.147Z,3.25
2018-02-04T05:12:53.164Z,3.24
2018-02-04T05:13:17.171Z,3.23
2018-02-04T05:13:40.938Z,3.24
2018-02-04T05:14:04.372Z,3.24
2018-02-04T05:14:28.157Z,3.23
2018-02-04T05:14:51.901Z,3.24
2018-02-04T05:15:15.916Z,3.24
2018-02-04T05:15:39.388Z,3.24
2018-02-04T05:16:03.100Z,3.26
2018-02-04T05:16:26.815Z,3.26
2018-02-04T05:16:50.584Z,3.27
2018-02-04T05:17:14.094Z,3.28
2018-02-04T05:17:37.863Z,3.29
2018-02-04T05:18:01.314Z,3.30
2018-02-04T05:18:25.088Z,3.30
2018-02-04T05:18:48.868Z,3.30
2018-02-04T05:19:12.615Z,3.29
2018-02-04T05:19:36.375Z,3.29
2018-02-04T05:20:00.119Z,3.28
2018-02-04T05:20:23.923Z,3.28
2018-02-04T05:20:47.724Z,3.27
2018-02-04T05:21:11.449Z,3.27
2018-02-04T05:21:35.219Z,3.25
2018-02-04T05:21:58.960Z,3.24
2018-02-04T05:22:22.677Z,3.22
2018-02-04T05:22:46.476Z,3.20
2018-02-04T05:23:10.247Z,3.19
2018-02-04T05:23:33.969Z,3.17
2018-02-04T05:23:58.066Z,3.15
2018-02-04T05:24:21.837Z,3.14
2018-02-04T05:24:45.875Z,3.12
2018-02-04T05:25:09.647Z,3.11
2018-02-04T05:25:33.114Z,3.10
2018-02-04T05:25:56.847Z,3.09
2018-02-04T05:26:20.404Z,3.08
2018-02-04T05:26:43.648Z,3.08
2018-02-04T05:27:07.655Z,3.06
2018-02-04T05:27:31.242Z,3.05
2018-02-04T05:27:54.957Z,3.04
2018-02-04T05:28:18.691Z,3.04
2018-02-04T05:28:42.436Z,3.04
2018-02-04T05:29:06.499Z,3.04
2018-02-04T05:29:29.581Z,3.04
2018-02-04T05:29:53.315Z,3.04
2018-02-04T05:30:17.387Z,3.05
2018-02-04T05:30:41.135Z,3.05
2018-02-04T05:31:04.566Z,3.06
2018-02-04T05:31:28.549Z,3.06
2018-02-04T05:31:52.308Z,3.07
2018-02-04T05:32:16.039Z,3.07
2018-02-04T05:32:40.154Z,3.07
2018-02-04T05:33:03.962Z,3.08
2018-02-04T05:33:28.025Z,3.08
2018-02-04T05:33:51.772Z,3.08
2018-02-04T05:34:15.207Z,3.08
2018-02-04T05:34:38.951Z,3.09
2018-02-04T05:35:01.987Z,3.09
2018-02-04T05:35:25.756Z,3.08
2018-02-04T05:35:49.543Z,3.09
2018-02-04T05:36:13.000Z,3.10
2018-02-04T05:36:36.732Z,3.10
2018-02-04T05:37:00.456Z,3.12
2018-02-04T05:37:24.554Z,3.12
2018-02-04T05:37:48.430Z,3.13
2018-02-04T05:38:12.496Z,3.13
2018-02-04T05:38:36.231Z,3.13
2018-02-04T05:38:59.423Z,3.14
2018-02-04T05:39:23.151Z,3.15
2018-02-04T05:39:46.610Z,3.16
2018-02-04T05:40:10.061Z,3.18
2018-02-04T05:40:33.522Z,3.18
2018-02-04T05:40:56.588Z,3.19
2018-02-04T05:41:20.303Z,3.19
2018-02-04T05:41:44.044Z,3.21
2018-02-04T05:42:07.800Z,3.22
2018-02-04T05:42:31.363Z,3.22
2018-02-04T05:42:55.150Z,3.22
2018-02-04T05:43:18.881Z,3.23
2018-02-04T05:43:42.175Z,3.24
2018-02-04T05:44:05.979Z,3.24
2018-02-04T05:44:29.425Z,3.24
2018-02-04T05:44:53.144Z,3.24
2018-02-04T05:45:16.879Z,3.25
2018-02-04T05:45:40.630Z,3.24
2018-02-04T05:46:04.672Z,3.25
2018-02-04T05:46:28.405Z,3.25
2018-02-04T05:46:52.266Z,3.24
2018-02-04T05:47:15.804Z,3.24
2018-02-04T05:47:39.527Z,3.24
2018-02-04T05:48:03.315Z,3.24
2018-02-04T05:48:27.139Z,3.24
2018-02-04T05:48:50.671Z,3.24
2018-02-04T05:49:14.199Z,3.24
2018-02-04T05:49:37.361Z,3.24
2018-02-04T05:50:00.943Z,3.24
2018-02-04T05:50:24.698Z,3.24
2018-02-04T05:50:48.305Z,3.25
2018-02-04T05:51:11.346Z,3.25
2018-02-04T05:51:35.101Z,3.26
2018-02-04T05:51:58.856Z,3.27
2018-02-04T05:52:22.891Z,3.27
2018-02-04T05:52:46.897Z,3.29
2018-02-04T05:53:10.692Z,3.28
2018-02-04T05:53:34.194Z,3.28
2018-02-04T05:53:57.952Z,3.29
2018-02-04T05:54:21.545Z,3.29
2018-02-04T05:54:44.095Z,3.30
2018-02-04T05:55:07.840Z,3.31
2018-02-04T05:55:31.440Z,3.30
2018-02-04T05:55:55.495Z,3.31
2018-02-04T05:56:19.515Z,3.31
2018-02-04T05:56:43.268Z,3.31
2018-02-04T05:57:06.807Z,3.31
2018-02-04T05:57:30.539Z,3.30
2018-02-04T05:57:54.255Z,3.30
2018-02-04T05:58:18.287Z,3.30
2018-02-04T05:58:42.317Z,3.29
2018-02-04T05:59:06.100Z,3.28
2018-02-04T05:59:29.535Z,3.28
2018-02-04T05:59:53.093Z,3.29